Terminal Aerodrome Forecast
Issued by NWS

Home | Current Version | Previous Version | Text Only | Print | Product List | Glossary On
Versions: 1 2 3 4 5 6 7 8 9 10 11 12
755
FTUS44 KTSA 231720
TAFRVS
TAF
KRVS 231720Z 2318/2418 36011G18KT P6SM SCT030 BKN040 BKN120
      TEMPO 2318/2319 BKN030
     FM232100 01012G20KT P6SM SCT100
     FM240100 02007KT P6SM BKN120=

USA.gov is the U.S. government's official web portal to all federal, state and local government web resources and services.